createdAt,value
2022-08-22T07:11:21.801Z,25.50
2022-08-22T07:14:45.626Z,26.06
2022-08-22T07:17:51.615Z,26.23
2022-08-22T07:21:04.395Z,26.19
2022-08-22T07:24:07.722Z,26.31
2022-08-22T07:27:52.546Z,26.72
2022-08-22T07:30:57.839Z,27.17
2022-08-22T07:34:40.620Z,27.33
2022-08-22T07:37:52.099Z,27.43
2022-08-22T07:41:10.903Z,27.40
2022-08-22T07:44:23.461Z,27.44
2022-08-22T07:47:34.839Z,27.57
2022-08-22T07:50:53.430Z,27.85
2022-08-22T07:54:02.622Z,27.85
2022-08-22T07:57:15.360Z,28.17
2022-08-22T08:00:20.457Z,28.25
2022-08-22T08:03:25.916Z,28.35
2022-08-22T08:06:32.046Z,28.29
2022-08-22T08:09:39.238Z,28.17
2022-08-22T08:12:52.701Z,28.31
2022-08-22T08:16:08.364Z,28.74
2022-08-22T08:19:12.312Z,28.99
2022-08-22T08:22:19.140Z,29.08
2022-08-22T08:25:27.652Z,29.53
2022-08-22T08:28:37.592Z,29.75
2022-08-22T08:31:44.717Z,29.62
2022-08-22T08:34:47.343Z,29.31
2022-08-22T08:37:59.271Z,29.45
2022-08-22T08:41:22.700Z,29.60
2022-08-22T08:44:49.945Z,29.58
2022-08-22T08:48:27.324Z,29.33
2022-08-22T08:52:10.277Z,29.64
2022-08-22T08:55:31.037Z,29.64
2022-08-22T08:58:41.562Z,29.50
2022-08-22T09:02:06.114Z,29.47
2022-08-22T09:05:19.523Z,29.62
2022-08-22T09:08:44.847Z,29.54
2022-08-22T09:12:24.874Z,29.53
2022-08-22T09:16:04.506Z,29.79
2022-08-22T09:19:27.224Z,29.61
2022-08-22T09:22:54.048Z,29.76
2022-08-22T09:26:17.257Z,29.97
2022-08-22T09:29:35.893Z,29.76
2022-08-22T09:32:57.359Z,29.58
2022-08-22T09:36:05.103Z,29.42
2022-08-22T09:39:13.803Z,29.50
2022-08-22T09:42:50.298Z,30.18
2022-08-22T09:46:15.542Z,30.85
2022-08-22T09:49:26.255Z,31.00
2022-08-22T09:53:03.173Z,30.63
2022-08-22T09:56:11.596Z,30.31
2022-08-22T09:59:40.636Z,30.41
2022-08-22T10:03:01.554Z,30.04
2022-08-22T10:06:15.730Z,29.93
2022-08-22T10:09:31.497Z,30.05
2022-08-22T10:12:44.796Z,30.06
2022-08-22T10:16:16.411Z,29.91
2022-08-22T10:19:34.246Z,29.77
2022-08-22T10:22:47.459Z,29.83
2022-08-22T10:25:54.259Z,29.68
2022-08-22T10:29:09.245Z,29.39
2022-08-22T10:32:47.933Z,29.28
2022-08-22T10:36:05.304Z,29.22
2022-08-22T10:39:12.011Z,29.06
2022-08-22T10:42:18.654Z,29.00
2022-08-22T10:45:36.802Z,28.85
2022-08-22T10:48:42.428Z,28.76
2022-08-22T10:51:54.074Z,28.87
2022-08-22T10:55:00.856Z,28.70
2022-08-22T10:58:11.656Z,28.72
2022-08-22T11:01:37.823Z,28.72
2022-08-22T11:05:20.172Z,28.66
2022-08-22T11:08:45.999Z,28.67
2022-08-22T11:12:16.593Z,28.63
2022-08-22T11:15:57.481Z,28.71
2022-08-22T11:19:15.202Z,28.45
2022-08-22T11:22:48.733Z,28.54
2022-08-22T11:26:30.040Z,28.45
2022-08-22T11:29:55.057Z,28.38
2022-08-22T11:33:17.999Z,28.47
2022-08-22T11:36:26.351Z,28.58
2022-08-22T11:40:08.094Z,28.61
2022-08-22T11:43:20.037Z,28.82
2022-08-22T11:46:31.256Z,28.87
2022-08-22T11:49:33.524Z,28.78
2022-08-22T11:53:01.684Z,28.80
2022-08-22T11:56:19.376Z,28.80
2022-08-22T11:59:30.187Z,28.83
2022-08-22T12:03:02.763Z,28.72
2022-08-22T12:06:50.126Z,28.53
2022-08-22T12:09:58.787Z,28.66
2022-08-22T12:13:14.573Z,28.69
2022-08-22T12:16:47.324Z,28.55
2022-08-22T12:20:16.050Z,28.39
2022-08-22T12:23:43.639Z,28.36
2022-08-22T12:27:13.015Z,28.17
2022-08-22T12:30:32.376Z,28.13
2022-08-22T12:34:12.460Z,28.24
2022-08-22T12:37:24.376Z,28.33
2022-08-22T12:40:56.262Z,28.44
2022-08-22T12:44:20.416Z,28.32
2022-08-22T12:47:36.230Z,28.38
2022-08-22T12:51:17.211Z,28.33
2022-08-22T12:54:37.537Z,28.27
2022-08-22T12:58:06.868Z,28.45
2022-08-22T13:01:11.138Z,28.66
2022-08-22T13:04:33.240Z,28.63
2022-08-22T13:07:38.450Z,28.58
2022-08-22T13:10:50.003Z,28.70
2022-08-22T13:13:56.462Z,28.64
2022-08-22T13:17:15.233Z,28.68
2022-08-22T13:20:37.870Z,28.70
2022-08-22T13:23:53.276Z,28.86
2022-08-22T13:27:00.431Z,29.00
2022-08-22T13:30:08.052Z,29.09
2022-08-22T13:33:24.902Z,29.12
2022-08-22T13:36:28.096Z,29.15
2022-08-22T13:39:39.867Z,29.11
2022-08-22T13:42:48.195Z,29.15
2022-08-22T13:45:55.776Z,28.93
2022-08-22T13:49:01.283Z,28.99
2022-08-22T13:52:30.597Z,28.89
2022-08-22T13:55:43.076Z,28.94
2022-08-22T13:58:48.430Z,28.88
2022-08-22T14:02:07.192Z,28.92
2022-08-22T14:05:16.613Z,28.79
2022-08-22T14:08:31.707Z,28.78
2022-08-22T14:11:44.834Z,28.84
2022-08-22T14:14:54.958Z,28.81
2022-08-22T14:18:12.212Z,28.77
2022-08-22T14:21:54.083Z,28.73
2022-08-22T14:25:22.383Z,28.72
2022-08-22T14:28:30.961Z,28.81
2022-08-22T14:31:34.112Z,28.98
2022-08-22T14:34:40.323Z,29.03
2022-08-22T14:37:51.576Z,29.21
2022-08-22T14:40:57.979Z,29.28
2022-08-22T14:44:17.530Z,29.32
2022-08-22T14:47:54.130Z,29.22
2022-08-22T14:50:55.131Z,29.27
2022-08-22T14:54:21.443Z,29.20
2022-08-22T14:57:24.360Z,29.20
2022-08-22T15:00:38.909Z,29.20
2022-08-22T15:03:42.552Z,29.12
2022-08-22T15:06:57.897Z,29.00
2022-08-22T15:10:20.628Z,28.95
2022-08-22T15:13:25.195Z,28.89
2022-08-22T15:16:41.808Z,28.91
2022-08-22T15:19:47.297Z,28.92
2022-08-22T15:22:57.660Z,28.95
2022-08-22T15:26:03.884Z,28.89
2022-08-22T15:29:17.805Z,28.98
2022-08-22T15:32:31.327Z,28.96
2022-08-22T15:35:39.026Z,29.06
2022-08-22T15:38:47.955Z,28.96
2022-08-22T15:41:50.964Z,28.94
2022-08-22T15:44:55.712Z,28.94
2022-08-22T15:48:00.140Z,28.83
2022-08-22T15:51:33.421Z,28.76
2022-08-22T15:54:42.668Z,28.69
2022-08-22T15:58:13.083Z,28.56
2022-08-22T16:01:22.578Z,28.42
2022-08-22T16:04:49.850Z,28.45
2022-08-22T16:07:58.489Z,28.37
2022-08-22T16:11:03.667Z,28.36
2022-08-22T16:14:45.258Z,28.27
2022-08-22T16:17:53.322Z,28.19
2022-08-22T16:21:28.057Z,28.12
2022-08-22T16:24:38.022Z,28.10
2022-08-22T16:27:52.070Z,28.08
2022-08-22T16:30:56.140Z,28.03
2022-08-22T16:34:18.399Z,27.96
2022-08-22T16:37:42.604Z,27.86
2022-08-22T16:40:47.597Z,27.89
2022-08-22T16:44:16.630Z,27.84
2022-08-22T16:47:41.739Z,27.54
2022-08-22T16:50:44.023Z,27.45
2022-08-22T16:53:49.101Z,27.47
2022-08-22T16:57:23.567Z,27.38
2022-08-22T17:00:34.960Z,27.32
2022-08-22T17:04:07.779Z,27.36
2022-08-22T17:07:37.225Z,27.21
2022-08-22T17:10:39.153Z,27.25
2022-08-22T17:13:48.354Z,27.25
2022-08-22T17:17:12.077Z,27.22
2022-08-22T17:20:32.724Z,27.18
2022-08-22T17:24:00.865Z,27.09
2022-08-22T17:27:12.401Z,27.04
2022-08-22T17:30:29.327Z,27.03
2022-08-22T17:34:00.661Z,26.86
2022-08-22T17:37:07.842Z,26.78
2022-08-22T17:40:13.928Z,26.74
2022-08-22T17:43:48.779Z,26.60
2022-08-22T17:47:18.921Z,26.32
2022-08-22T17:50:54.136Z,26.13
2022-08-22T17:54:20.061Z,26.09
2022-08-22T17:57:35.255Z,26.04
2022-08-22T18:00:47.885Z,26.03
2022-08-22T18:03:57.174Z,26.03
2022-08-22T18:07:28.770Z,26.05
2022-08-22T18:10:40.113Z,25.96
2022-08-22T18:13:56.931Z,25.91
2022-08-22T18:17:00.840Z,25.87
2022-08-22T18:20:23.000Z,25.83
2022-08-22T18:23:45.616Z,25.74
2022-08-22T18:26:58.415Z,25.71
2022-08-22T18:30:21.487Z,25.64
2022-08-22T18:33:48.881Z,25.54
2022-08-22T18:37:11.836Z,25.44
2022-08-22T18:40:31.044Z,25.31
2022-08-22T18:43:36.193Z,25.26
2022-08-22T18:46:38.378Z,25.20
2022-08-22T18:49:44.448Z,25.11
2022-08-22T18:52:46.646Z,25.05
2022-08-22T18:55:58.336Z,25.00
2022-08-22T18:59:09.055Z,24.94
2022-08-22T19:02:55.588Z,24.88
2022-08-22T19:06:32.295Z,24.78
2022-08-22T19:10:01.275Z,24.69
2022-08-22T19:13:10.694Z,24.63
2022-08-22T19:16:32.223Z,24.54
2022-08-22T19:20:35.175Z,24.44
2022-08-22T19:23:43.639Z,24.27
2022-08-22T19:26:48.405Z,24.16
2022-08-22T19:29:55.120Z,24.02
2022-08-22T19:33:03.755Z,23.95
2022-08-22T19:36:10.875Z,23.86
2022-08-22T19:39:50.360Z,23.78
2022-08-22T19:43:16.642Z,23.68
2022-08-22T19:46:38.824Z,23.58
2022-08-22T19:50:05.915Z,23.49
2022-08-22T19:53:19.411Z,23.39
2022-08-22T19:56:49.719Z,23.26
2022-08-22T20:00:17.074Z,23.24
2022-08-22T20:03:44.887Z,23.21
2022-08-22T20:07:14.869Z,23.12
2022-08-22T20:10:30.768Z,23.08
2022-08-22T20:13:34.912Z,22.99
2022-08-22T20:17:14.736Z,22.98
2022-08-22T20:20:27.922Z,22.90
2022-08-22T20:23:32.753Z,22.80
2022-08-22T20:26:47.466Z,22.79
2022-08-22T20:30:15.490Z,22.71
2022-08-22T20:33:29.101Z,22.69
2022-08-22T20:36:31.505Z,22.59
2022-08-22T20:39:47.515Z,22.54
2022-08-22T20:43:10.574Z,22.45
2022-08-22T20:47:01.567Z,22.42
2022-08-22T20:50:12.053Z,22.34
2022-08-22T20:53:20.627Z,22.31
2022-08-22T20:56:53.599Z,22.28
2022-08-22T21:00:06.504Z,22.22
2022-08-22T21:03:21.611Z,22.14
2022-08-22T21:06:42.026Z,22.13
2022-08-22T21:10:20.156Z,22.08
2022-08-22T21:13:30.364Z,22.05
2022-08-22T21:16:33.547Z,21.98
2022-08-22T21:19:35.748Z,21.96
2022-08-22T21:22:38.255Z,21.94
2022-08-22T21:26:08.515Z,21.90
2022-08-22T21:29:10.581Z,21.82
2022-08-22T21:32:32.148Z,21.80
2022-08-22T21:35:34.442Z,21.77
2022-08-22T21:38:37.497Z,21.75
2022-08-22T21:42:03.088Z,21.70
2022-08-22T21:45:10.372Z,21.66
2022-08-22T21:48:35.928Z,21.62
2022-08-22T21:51:45.625Z,21.58
2022-08-22T21:54:47.770Z,21.53
2022-08-22T21:58:12.553Z,21.48
2022-08-22T22:01:33.687Z,21.41
2022-08-22T22:04:35.942Z,21.31
2022-08-22T22:07:42.404Z,21.24
2022-08-22T22:10:46.536Z,21.16
2022-08-22T22:13:49.038Z,21.12
2022-08-22T22:16:51.313Z,21.10
2022-08-22T22:19:54.157Z,21.03
2022-08-22T22:22:56.538Z,20.92
2022-08-22T22:26:01.786Z,20.91
2022-08-22T22:29:04.332Z,20.90
2022-08-22T22:32:07.496Z,20.89
2022-08-22T22:35:09.888Z,20.89
2022-08-22T22:38:19.397Z,20.85
2022-08-22T22:41:25.646Z,20.84
2022-08-22T22:44:27.948Z,20.85
2022-08-22T22:47:31.759Z,20.80
2022-08-22T22:50:37.887Z,20.81
2022-08-22T22:53:42.778Z,20.73
2022-08-22T22:56:47.903Z,20.75
2022-08-22T22:59:50.527Z,20.76
2022-08-22T23:02:53.228Z,20.74
2022-08-22T23:05:55.409Z,20.73
2022-08-22T23:08:58.221Z,20.70
2022-08-22T23:12:02.889Z,20.67
2022-08-22T23:15:06.603Z,20.66
2022-08-22T23:18:08.936Z,20.65
2022-08-22T23:21:20.155Z,20.69
2022-08-22T23:24:23.234Z,20.64
2022-08-22T23:27:25.505Z,20.59
2022-08-22T23:30:27.944Z,20.59
2022-08-22T23:33:30.023Z,20.56
2022-08-22T23:36:32.863Z,20.57
2022-08-22T23:39:36.039Z,20.55
2022-08-22T23:42:38.544Z,20.50
2022-08-22T23:45:43.455Z,20.47
2022-08-22T23:48:46.618Z,20.45
2022-08-22T23:51:50.044Z,20.43
2022-08-22T23:54:54.627Z,20.34
2022-08-22T23:57:58.129Z,20.29
